sensor_id;sensor_type;location;lat;lon;timestamp;pressure;altitude;pressure_sealevel;temperature;humidity
79374;BME280;68844;53.128;17.958;2023-09-19T00:00:21;100144.55;;;19.90;66.25
79374;BME280;68844;53.128;17.958;2023-09-19T00:03:08;100140.52;;;19.84;66.88
79374;BME280;68844;53.128;17.958;2023-09-19T00:05:37;100143.48;;;19.80;66.99
79374;BME280;68844;53.128;17.958;2023-09-19T00:08:10;100147.73;;;19.77;67.04
79374;BME280;68844;53.128;17.958;2023-09-19T00:10:39;100151.53;;;19.73;67.04
79374;BME280;68844;53.128;17.958;2023-09-19T00:13:08;100156.10;;;19.70;66.93
79374;BME280;68844;53.128;17.958;2023-09-19T00:15:41;100158.52;;;19.66;66.92
79374;BME280;68844;53.128;17.958;2023-09-19T00:18:08;100158.40;;;19.61;67.89
79374;BME280;68844;53.128;17.958;2023-09-19T00:20:36;100163.58;;;19.53;68.53
79374;BME280;68844;53.128;17.958;2023-09-19T00:23:03;100164.84;;;19.50;68.45
79374;BME280;68844;53.128;17.958;2023-09-19T00:25:31;100167.98;;;19.49;68.46
79374;BME280;68844;53.128;17.958;2023-09-19T00:27:59;100170.60;;;19.51;68.66
79374;BME280;68844;53.128;17.958;2023-09-19T00:30:25;100168.29;;;19.56;69.59
79374;BME280;68844;53.128;17.958;2023-09-19T00:32:52;100170.77;;;19.60;69.82
79374;BME280;68844;53.128;17.958;2023-09-19T00:35:22;100170.91;;;19.64;69.35
79374;BME280;68844;53.128;17.958;2023-09-19T00:37:51;100168.47;;;19.68;69.89
79374;BME280;68844;53.128;17.958;2023-09-19T00:40:19;100167.68;;;19.74;69.80
79374;BME280;68844;53.128;17.958;2023-09-19T00:42:48;100168.31;;;19.77;69.26
79374;BME280;68844;53.128;17.958;2023-09-19T00:45:16;100166.69;;;19.77;69.49
79374;BME280;68844;53.128;17.958;2023-09-19T00:47:46;100164.27;;;19.74;69.66
79374;BME280;68844;53.128;17.958;2023-09-19T00:50:17;100161.90;;;19.73;69.39
79374;BME280;68844;53.128;17.958;2023-09-19T00:52:50;100159.39;;;19.76;69.57
79374;BME280;68844;53.128;17.958;2023-09-19T00:55:18;100151.81;;;19.79;69.90
79374;BME280;68844;53.128;17.958;2023-09-19T00:57:46;100149.44;;;19.77;70.74
79374;BME280;68844;53.128;17.958;2023-09-19T01:00:16;100149.30;;;19.75;69.94
79374;BME280;68844;53.128;17.958;2023-09-19T01:02:46;100148.11;;;19.73;70.16
79374;BME280;68844;53.128;17.958;2023-09-19T01:05:13;100150.31;;;19.71;70.54
79374;BME280;68844;53.128;17.958;2023-09-19T01:07:41;100147.85;;;19.67;70.49
79374;BME280;68844;53.128;17.958;2023-09-19T01:10:10;100148.95;;;19.65;70.86
79374;BME280;68844;53.128;17.958;2023-09-19T01:15:47;100142.37;;;19.56;72.21
79374;BME280;68844;53.128;17.958;2023-09-19T01:18:30;100143.33;;;19.54;71.11
79374;BME280;68844;53.128;17.958;2023-09-19T01:21:15;100142.16;;;19.55;72.11
79374;BME280;68844;53.128;17.958;2023-09-19T01:29:33;100127.05;;;19.44;71.58
79374;BME280;68844;53.128;17.958;2023-09-19T01:32:03;100116.70;;;19.47;72.02
79374;BME280;68844;53.128;17.958;2023-09-19T01:35:03;100101.92;;;19.45;72.18
79374;BME280;68844;53.128;17.958;2023-09-19T01:37:30;100086.66;;;19.41;72.48
79374;BME280;68844;53.128;17.958;2023-09-19T01:40:02;100086.55;;;19.38;72.53
79374;BME280;68844;53.128;17.958;2023-09-19T01:42:45;100089.88;;;19.39;72.51
79374;BME280;68844;53.128;17.958;2023-09-19T01:45:26;100101.59;;;19.38;72.87
79374;BME280;68844;53.128;17.958;2023-09-19T01:48:05;100116.48;;;19.34;73.12
79374;BME280;68844;53.128;17.958;2023-09-19T01:50:49;100126.12;;;19.31;73.11
79374;BME280;68844;53.128;17.958;2023-09-19T01:53:26;100118.58;;;19.29;73.24
79374;BME280;68844;53.128;17.958;2023-09-19T01:55:55;100109.35;;;19.25;73.60
79374;BME280;68844;53.128;17.958;2023-09-19T01:58:33;100113.58;;;19.22;74.04
79374;BME280;68844;53.128;17.958;2023-09-19T02:01:01;100120.97;;;19.16;74.00
79374;BME280;68844;53.128;17.958;2023-09-19T02:03:31;100119.64;;;19.12;74.65
79374;BME280;68844;53.128;17.958;2023-09-19T02:06:00;100124.77;;;19.12;73.99
79374;BME280;68844;53.128;17.958;2023-09-19T02:08:27;100133.05;;;19.11;74.58
79374;BME280;68844;53.128;17.958;2023-09-19T02:10:53;100128.85;;;19.07;74.98
79374;BME280;68844;53.128;17.958;2023-09-19T02:13:21;100129.60;;;19.04;75.58
79374;BME280;68844;53.128;17.958;2023-09-19T02:15:50;100133.88;;;18.99;75.47
79374;BME280;68844;53.128;17.958;2023-09-19T02:18:17;100139.65;;;18.98;75.25
79374;BME280;68844;53.128;17.958;2023-09-19T02:20:44;100135.36;;;18.96;75.76
79374;BME280;68844;53.128;17.958;2023-09-19T02:23:12;100130.48;;;18.93;76.09
79374;BME280;68844;53.128;17.958;2023-09-19T02:25:39;100123.45;;;18.87;76.59
79374;BME280;68844;53.128;17.958;2023-09-19T02:28:07;100126.41;;;18.86;76.30
79374;BME280;68844;53.128;17.958;2023-09-19T02:30:35;100119.03;;;18.83;76.35
79374;BME280;68844;53.128;17.958;2023-09-19T02:33:03;100117.01;;;18.82;76.55
79374;BME280;68844;53.128;17.958;2023-09-19T02:35:30;100122.05;;;18.82;77.29
79374;BME280;68844;53.128;17.958;2023-09-19T02:38:02;100125.86;;;18.80;77.32
79374;BME280;68844;53.128;17.958;2023-09-19T02:40:32;100126.14;;;18.77;77.64
79374;BME280;68844;53.128;17.958;2023-09-19T02:43:02;100137.05;;;18.74;77.65
79374;BME280;68844;53.128;17.958;2023-09-19T02:45:28;100135.92;;;18.75;77.67
79374;BME280;68844;53.128;17.958;2023-09-19T02:47:57;100127.24;;;18.73;77.95
79374;BME280;68844;53.128;17.958;2023-09-19T02:50:24;100153.26;;;18.71;78.51
79374;BME280;68844;53.128;17.958;2023-09-19T02:52:51;100162.90;;;18.66;79.55
79374;BME280;68844;53.128;17.958;2023-09-19T02:55:19;100143.28;;;18.55;81.29
79374;BME280;68844;53.128;17.958;2023-09-19T02:57:54;100146.35;;;18.46;81.08
79374;BME280;68844;53.128;17.958;2023-09-19T03:00:22;100161.33;;;18.42;80.36
79374;BME280;68844;53.128;17.958;2023-09-19T03:02:49;100156.45;;;18.43;81.06
79374;BME280;68844;53.128;17.958;2023-09-19T03:05:17;100154.17;;;18.38;80.95
79374;BME280;68844;53.128;17.958;2023-09-19T03:07:44;100148.85;;;18.35;81.14
79374;BME280;68844;53.128;17.958;2023-09-19T03:10:13;100154.11;;;18.29;81.39
79374;BME280;68844;53.128;17.958;2023-09-19T03:12:41;100157.27;;;18.27;81.48
79374;BME280;68844;53.128;17.958;2023-09-19T03:15:09;100153.05;;;18.26;81.70
79374;BME280;68844;53.128;17.958;2023-09-19T03:17:36;100148.07;;;18.27;81.79
79374;BME280;68844;53.128;17.958;2023-09-19T03:20:03;100145.61;;;18.24;82.70
79374;BME280;68844;53.128;17.958;2023-09-19T03:22:31;100150.41;;;18.21;82.05
79374;BME280;68844;53.128;17.958;2023-09-19T03:24:59;100149.84;;;18.20;81.98
79374;BME280;68844;53.128;17.958;2023-09-19T03:27:27;100152.84;;;18.21;82.61
79374;BME280;68844;53.128;17.958;2023-09-19T03:29:54;100152.61;;;18.24;82.15
79374;BME280;68844;53.128;17.958;2023-09-19T03:32:21;100149.08;;;18.22;82.54
79374;BME280;68844;53.128;17.958;2023-09-19T03:34:48;100143.70;;;18.19;82.34
79374;BME280;68844;53.128;17.958;2023-09-19T03:37:15;100140.89;;;18.18;81.86
79374;BME280;68844;53.128;17.958;2023-09-19T03:39:42;100140.34;;;18.16;82.03
79374;BME280;68844;53.128;17.958;2023-09-19T03:42:08;100140.04;;;18.14;83.02
79374;BME280;68844;53.128;17.958;2023-09-19T03:44:36;100142.00;;;18.07;83.01
79374;BME280;68844;53.128;17.958;2023-09-19T03:47:03;100146.00;;;18.03;82.95
79374;BME280;68844;53.128;17.958;2023-09-19T03:49:32;100151.01;;;18.02;83.44
79374;BME280;68844;53.128;17.958;2023-09-19T03:51:59;100148.15;;;18.01;82.85
79374;BME280;68844;53.128;17.958;2023-09-19T03:54:26;100150.04;;;17.99;83.73
79374;BME280;68844;53.128;17.958;2023-09-19T03:56:53;100152.17;;;17.97;83.31
79374;BME280;68844;53.128;17.958;2023-09-19T03:59:20;100148.80;;;17.99;83.56
79374;BME280;68844;53.128;17.958;2023-09-19T04:01:46;100151.11;;;17.99;83.37
79374;BME280;68844;53.128;17.958;2023-09-19T04:04:13;100139.13;;;18.00;83.35
79374;BME280;68844;53.128;17.958;2023-09-19T04:06:40;100130.23;;;18.03;83.52
79374;BME280;68844;53.128;17.958;2023-09-19T04:09:07;100121.00;;;18.03;83.35
79374;BME280;68844;53.128;17.958;2023-09-19T04:11:34;100119.98;;;18.02;83.59
79374;BME280;68844;53.128;17.958;2023-09-19T04:14:03;100111.88;;;18.02;84.29
79374;BME280;68844;53.128;17.958;2023-09-19T04:16:30;100106.13;;;17.95;84.04
79374;BME280;68844;53.128;17.958;2023-09-19T04:18:57;100112.08;;;17.92;84.35
79374;BME280;68844;53.128;17.958;2023-09-19T04:21:23;100121.34;;;17.91;83.73
79374;BME280;68844;53.128;17.958;2023-09-19T04:23:50;100118.67;;;17.89;84.13
79374;BME280;68844;53.128;17.958;2023-09-19T04:26:17;100109.29;;;17.83;84.00
79374;BME280;68844;53.128;17.958;2023-09-19T04:28:44;100120.36;;;17.79;84.08
79374;BME280;68844;53.128;17.958;2023-09-19T04:31:10;100123.76;;;17.75;83.80
79374;BME280;68844;53.128;17.958;2023-09-19T04:33:38;100125.33;;;17.72;84.18
79374;BME280;68844;53.128;17.958;2023-09-19T04:36:05;100138.48;;;17.67;84.53
79374;BME280;68844;53.128;17.958;2023-09-19T04:38:33;100142.77;;;17.62;84.65
79374;BME280;68844;53.128;17.958;2023-09-19T04:41:00;100142.05;;;17.56;85.04
79374;BME280;68844;53.128;17.958;2023-09-19T04:43:27;100146.23;;;17.54;84.74
79374;BME280;68844;53.128;17.958;2023-09-19T04:45:54;100145.16;;;17.57;84.33
79374;BME280;68844;53.128;17.958;2023-09-19T04:48:22;100141.23;;;17.58;84.51
79374;BME280;68844;53.128;17.958;2023-09-19T04:50:52;100147.67;;;17.62;84.71
79374;BME280;68844;53.128;17.958;2023-09-19T04:53:19;100148.14;;;17.66;84.53
79374;BME280;68844;53.128;17.958;2023-09-19T04:55:51;100146.63;;;17.67;84.72
79374;BME280;68844;53.128;17.958;2023-09-19T04:58:22;100138.41;;;17.69;84.72
79374;BME280;68844;53.128;17.958;2023-09-19T05:00:49;100137.86;;;17.77;84.12
79374;BME280;68844;53.128;17.958;2023-09-19T05:03:17;100138.67;;;17.81;84.73
79374;BME280;68844;53.128;17.958;2023-09-19T05:05:47;100138.87;;;17.88;84.64
79374;BME280;68844;53.128;17.958;2023-09-19T05:08:14;100133.91;;;17.93;84.76
79374;BME280;68844;53.128;17.958;2023-09-19T05:10:41;100129.00;;;17.94;84.67
79374;BME280;68844;53.128;17.958;2023-09-19T05:13:08;100125.24;;;17.96;84.70
79374;BME280;68844;53.128;17.958;2023-09-19T05:15:34;100129.85;;;18.05;84.43
79374;BME280;68844;53.128;17.958;2023-09-19T05:18:02;100133.85;;;18.17;84.24
79374;BME280;68844;53.128;17.958;2023-09-19T05:20:29;100142.54;;;18.21;84.18
79374;BME280;68844;53.128;17.958;2023-09-19T05:23:02;100135.30;;;18.21;84.13
79374;BME280;68844;53.128;17.958;2023-09-19T05:25:32;100133.55;;;18.20;84.23
79374;BME280;68844;53.128;17.958;2023-09-19T05:27:59;100140.88;;;18.23;83.76
79374;BME280;68844;53.128;17.958;2023-09-19T05:30:26;100147.36;;;18.30;83.86
79374;BME280;68844;53.128;17.958;2023-09-19T05:32:53;100149.90;;;18.31;84.13
79374;BME280;68844;53.128;17.958;2023-09-19T05:35:21;100151.87;;;18.29;84.03
79374;BME280;68844;53.128;17.958;2023-09-19T05:37:50;100153.48;;;18.29;84.30
79374;BME280;68844;53.128;17.958;2023-09-19T05:40:18;100154.55;;;18.24;84.14
79374;BME280;68844;53.128;17.958;2023-09-19T05:42:45;100158.41;;;18.19;84.59
79374;BME280;68844;53.128;17.958;2023-09-19T05:45:13;100165.74;;;18.19;84.06
79374;BME280;68844;53.128;17.958;2023-09-19T05:47:40;100158.62;;;18.21;84.32
79374;BME280;68844;53.128;17.958;2023-09-19T05:50:12;100156.59;;;18.21;84.26
79374;BME280;68844;53.128;17.958;2023-09-19T05:52:39;100157.96;;;18.24;83.94
79374;BME280;68844;53.128;17.958;2023-09-19T05:55:07;100153.60;;;18.25;84.42
79374;BME280;68844;53.128;17.958;2023-09-19T05:57:34;100147.02;;;18.23;84.07
79374;BME280;68844;53.128;17.958;2023-09-19T06:00:02;100154.59;;;18.24;84.25
79374;BME280;68844;53.128;17.958;2023-09-19T06:02:38;100163.06;;;18.23;84.33
79374;BME280;68844;53.128;17.958;2023-09-19T06:05:07;100165.52;;;18.20;84.49
79374;BME280;68844;53.128;17.958;2023-09-19T06:07:37;100165.42;;;18.15;84.67
79374;BME280;68844;53.128;17.958;2023-09-19T06:10:04;100174.27;;;18.09;84.42
79374;BME280;68844;53.128;17.958;2023-09-19T06:12:38;100178.76;;;18.05;84.83
79374;BME280;68844;53.128;17.958;2023-09-19T06:15:05;100178.95;;;18.04;84.53
79374;BME280;68844;53.128;17.958;2023-09-19T06:17:35;100181.93;;;18.11;85.15
79374;BME280;68844;53.128;17.958;2023-09-19T06:20:05;100181.20;;;18.11;84.90
79374;BME280;68844;53.128;17.958;2023-09-19T06:22:40;100184.98;;;18.12;84.75
79374;BME280;68844;53.128;17.958;2023-09-19T06:25:09;100186.13;;;18.17;84.55
79374;BME280;68844;53.128;17.958;2023-09-19T06:27:41;100188.16;;;18.23;84.42
79374;BME280;68844;53.128;17.958;2023-09-19T06:30:10;100188.95;;;18.26;84.57
79374;BME280;68844;53.128;17.958;2023-09-19T06:32:41;100190.06;;;18.27;84.94
79374;BME280;68844;53.128;17.958;2023-09-19T06:35:12;100194.66;;;18.24;84.78
79374;BME280;68844;53.128;17.958;2023-09-19T06:37:40;100198.08;;;18.27;84.37
79374;BME280;68844;53.128;17.958;2023-09-19T06:42:35;100201.52;;;18.40;84.78
79374;BME280;68844;53.128;17.958;2023-09-19T06:45:04;100202.02;;;18.38;84.27
79374;BME280;68844;53.128;17.958;2023-09-19T06:47:32;100205.05;;;18.35;84.44
79374;BME280;68844;53.128;17.958;2023-09-19T06:49:58;100205.84;;;18.34;84.41
79374;BME280;68844;53.128;17.958;2023-09-19T06:52:28;100207.68;;;18.41;84.05
79374;BME280;68844;53.128;17.958;2023-09-19T06:54:54;100209.67;;;18.49;83.90
79374;BME280;68844;53.128;17.958;2023-09-19T06:57:21;100211.85;;;18.52;83.99
79374;BME280;68844;53.128;17.958;2023-09-19T06:59:48;100215.83;;;18.54;83.82
79374;BME280;68844;53.128;17.958;2023-09-19T07:02:15;100213.46;;;18.58;83.70
79374;BME280;68844;53.128;17.958;2023-09-19T07:04:41;100214.06;;;18.63;83.78
79374;BME280;68844;53.128;17.958;2023-09-19T07:07:08;100213.84;;;18.74;83.52
79374;BME280;68844;53.128;17.958;2023-09-19T07:09:36;100216.52;;;18.86;83.49
79374;BME280;68844;53.128;17.958;2023-09-19T07:12:03;100218.06;;;18.99;83.11
79374;BME280;68844;53.128;17.958;2023-09-19T07:14:30;100221.27;;;19.15;83.01
79374;BME280;68844;53.128;17.958;2023-09-19T07:16:57;100221.39;;;19.25;82.26
79374;BME280;68844;53.128;17.958;2023-09-19T07:19:26;100225.29;;;19.40;82.08
79374;BME280;68844;53.128;17.958;2023-09-19T07:21:56;100224.38;;;19.49;81.86
79374;BME280;68844;53.128;17.958;2023-09-19T07:24:26;100223.95;;;19.48;81.93
79374;BME280;68844;53.128;17.958;2023-09-19T07:26:55;100227.20;;;19.44;81.81
79374;BME280;68844;53.128;17.958;2023-09-19T07:29:22;100227.61;;;19.49;81.06
79374;BME280;68844;53.128;17.958;2023-09-19T07:31:48;100230.48;;;19.63;80.80
79374;BME280;68844;53.128;17.958;2023-09-19T07:34:16;100226.05;;;19.76;80.80
79374;BME280;68844;53.128;17.958;2023-09-19T07:36:43;100232.20;;;19.92;80.62
79374;BME280;68844;53.128;17.958;2023-09-19T07:39:10;100236.62;;;20.12;80.35
79374;BME280;68844;53.128;17.958;2023-09-19T07:41:37;100239.63;;;20.25;79.50
79374;BME280;68844;53.128;17.958;2023-09-19T07:44:03;100244.25;;;20.22;79.51
79374;BME280;68844;53.128;17.958;2023-09-19T07:46:30;100247.63;;;20.14;79.51
79374;BME280;68844;53.128;17.958;2023-09-19T07:48:57;100253.27;;;20.08;79.34
79374;BME280;68844;53.128;17.958;2023-09-19T07:51:24;100253.12;;;20.04;79.14
79374;BME280;68844;53.128;17.958;2023-09-19T07:53:51;100259.59;;;19.88;79.05
79374;BME280;68844;53.128;17.958;2023-09-19T07:56:19;100258.92;;;19.78;79.31
79374;BME280;68844;53.128;17.958;2023-09-19T07:58:47;100262.56;;;19.70;79.38
79374;BME280;68844;53.128;17.958;2023-09-19T08:01:13;100262.51;;;19.68;79.75
79374;BME280;68844;53.128;17.958;2023-09-19T08:03:41;100265.15;;;19.75;79.31
79374;BME280;68844;53.128;17.958;2023-09-19T08:06:09;100262.61;;;19.78;79.29
79374;BME280;68844;53.128;17.958;2023-09-19T08:08:37;100261.80;;;19.83;79.23
79374;BME280;68844;53.128;17.958;2023-09-19T08:11:05;100263.98;;;19.84;78.93
79374;BME280;68844;53.128;17.958;2023-09-19T08:13:39;100261.63;;;20.10;78.53
79374;BME280;68844;53.128;17.958;2023-09-19T08:16:18;100265.61;;;20.54;77.73
79374;BME280;68844;53.128;17.958;2023-09-19T08:18:49;100270.55;;;20.66;77.07
79374;BME280;68844;53.128;17.958;2023-09-19T08:21:19;100272.48;;;20.60;76.90
79374;BME280;68844;53.128;17.958;2023-09-19T08:23:46;100274.98;;;20.45;76.98
79374;BME280;68844;53.128;17.958;2023-09-19T08:26:12;100267.42;;;20.32;76.69
79374;BME280;68844;53.128;17.958;2023-09-19T08:28:39;100266.91;;;20.23;76.95
79374;BME280;68844;53.128;17.958;2023-09-19T08:31:08;100272.24;;;20.30;77.26
79374;BME280;68844;53.128;17.958;2023-09-19T08:33:36;100277.45;;;20.40;76.95
79374;BME280;68844;53.128;17.958;2023-09-19T08:36:03;100280.96;;;20.62;76.60
79374;BME280;68844;53.128;17.958;2023-09-19T08:38:35;100291.38;;;21.03;75.42
79374;BME280;68844;53.128;17.958;2023-09-19T08:41:06;100292.67;;;21.50;74.73
79374;BME280;68844;53.128;17.958;2023-09-19T08:43:34;100297.58;;;21.79;74.80
79374;BME280;68844;53.128;17.958;2023-09-19T08:46:11;100299.91;;;22.08;73.95
79374;BME280;68844;53.128;17.958;2023-09-19T08:48:47;100302.49;;;23.17;71.64
79374;BME280;68844;53.128;17.958;2023-09-19T08:51:29;100298.34;;;25.43;64.45
79374;BME280;68844;53.128;17.958;2023-09-19T08:54:03;100298.59;;;25.45;64.62
79374;BME280;68844;53.128;17.958;2023-09-19T08:56:33;100304.74;;;25.23;63.73
79374;BME280;68844;53.128;17.958;2023-09-19T08:59:03;100305.12;;;25.19;64.56
79374;BME280;68844;53.128;17.958;2023-09-19T09:01:31;100310.21;;;25.63;60.74
79374;BME280;68844;53.128;17.958;2023-09-19T09:03:58;100305.50;;;27.11;56.73
79374;BME280;68844;53.128;17.958;2023-09-19T09:06:26;100293.84;;;28.93;50.62
79374;BME280;68844;53.128;17.958;2023-09-19T09:08:54;100296.09;;;29.38;49.78
79374;BME280;68844;53.128;17.958;2023-09-19T09:11:21;100295.63;;;29.54;51.74
79374;BME280;68844;53.128;17.958;2023-09-19T09:13:51;100291.42;;;30.36;48.03
79374;BME280;68844;53.128;17.958;2023-09-19T09:16:17;100294.54;;;30.89;46.21
79374;BME280;68844;53.128;17.958;2023-09-19T09:18:45;100296.77;;;31.05;46.38
79374;BME280;68844;53.128;17.958;2023-09-19T09:21:13;100302.48;;;30.37;47.32
79374;BME280;68844;53.128;17.958;2023-09-19T09:23:41;100297.98;;;29.38;48.53
79374;BME280;68844;53.128;17.958;2023-09-19T09:26:07;100297.48;;;28.85;48.87
79374;BME280;68844;53.128;17.958;2023-09-19T09:28:36;100296.38;;;28.49;48.32
79374;BME280;68844;53.128;17.958;2023-09-19T09:31:24;100300.34;;;27.82;49.51
79374;BME280;68844;53.128;17.958;2023-09-19T09:33:55;100305.77;;;27.17;51.00
79374;BME280;68844;53.128;17.958;2023-09-19T09:36:36;100310.13;;;26.52;52.02
79374;BME280;68844;53.128;17.958;2023-09-19T09:39:03;100316.68;;;26.14;53.71
79374;BME280;68844;53.128;17.958;2023-09-19T09:41:42;100316.01;;;26.14;53.94
79374;BME280;68844;53.128;17.958;2023-09-19T09:44:15;100320.34;;;26.08;53.76
79374;BME280;68844;53.128;17.958;2023-09-19T09:46:43;100320.02;;;26.10;54.08
79374;BME280;68844;53.128;17.958;2023-09-19T09:49:22;100322.21;;;26.62;52.85
79374;BME280;68844;53.128;17.958;2023-09-19T09:52:01;100323.40;;;26.65;52.29
79374;BME280;68844;53.128;17.958;2023-09-19T09:54:31;100325.47;;;26.70;52.28
79374;BME280;68844;53.128;17.958;2023-09-19T09:57:09;100326.74;;;26.70;52.02
79374;BME280;68844;53.128;17.958;2023-09-19T09:59:59;100321.52;;;26.75;51.32
79374;BME280;68844;53.128;17.958;2023-09-19T10:02:42;100327.52;;;27.00;49.61
79374;BME280;68844;53.128;17.958;2023-09-19T10:05:17;100328.39;;;28.76;47.58
79374;BME280;68844;53.128;17.958;2023-09-19T10:07:47;100329.44;;;29.31;46.23
79374;BME280;68844;53.128;17.958;2023-09-19T10:10:29;100328.86;;;29.49;44.84
79374;BME280;68844;53.128;17.958;2023-09-19T10:13:05;100327.98;;;28.95;45.80
79374;BME280;68844;53.128;17.958;2023-09-19T10:15:34;100339.05;;;28.06;46.36
79374;BME280;68844;53.128;17.958;2023-09-19T10:18:06;100348.87;;;27.17;47.87
79374;BME280;68844;53.128;17.958;2023-09-19T10:20:36;100351.19;;;26.41;49.22
79374;BME280;68844;53.128;17.958;2023-09-19T10:23:10;100352.20;;;25.73;50.28
79374;BME280;68844;53.128;17.958;2023-09-19T10:25:42;100357.23;;;25.12;51.29
79374;BME280;68844;53.128;17.958;2023-09-19T10:28:12;100363.42;;;25.07;51.11
79374;BME280;68844;53.128;17.958;2023-09-19T10:30:47;100367.19;;;25.37;50.59
79374;BME280;68844;53.128;17.958;2023-09-19T10:33:20;100372.16;;;25.61;50.58
79374;BME280;68844;53.128;17.958;2023-09-19T10:35:49;100374.27;;;25.95;50.91
79374;BME280;68844;53.128;17.958;2023-09-19T10:38:18;100373.36;;;26.18;50.39
79374;BME280;68844;53.128;17.958;2023-09-19T10:40:52;100374.59;;;26.26;49.40
79374;BME280;68844;53.128;17.958;2023-09-19T10:43:20;100378.64;;;26.67;47.67
79374;BME280;68844;53.128;17.958;2023-09-19T10:45:49;100372.84;;;26.81;47.76
79374;BME280;68844;53.128;17.958;2023-09-19T10:48:19;100368.83;;;26.86;47.90
79374;BME280;68844;53.128;17.958;2023-09-19T10:50:50;100369.75;;;26.80;47.14
79374;BME280;68844;53.128;17.958;2023-09-19T10:53:19;100367.98;;;26.98;46.58
79374;BME280;68844;53.128;17.958;2023-09-19T10:55:49;100366.52;;;27.38;45.34
79374;BME280;68844;53.128;17.958;2023-09-19T10:58:31;100357.52;;;27.63;45.40
79374;BME280;68844;53.128;17.958;2023-09-19T11:01:03;100356.05;;;27.44;45.12
79374;BME280;68844;53.128;17.958;2023-09-19T11:03:39;100353.50;;;27.20;45.66
79374;BME280;68844;53.128;17.958;2023-09-19T11:06:12;100357.04;;;27.21;45.61
79374;BME280;68844;53.128;17.958;2023-09-19T11:11:44;100353.54;;;26.75;45.39
79374;BME280;68844;53.128;17.958;2023-09-19T11:30:33;100366.42;;;29.79;38.69
79374;BME280;68844;53.128;17.958;2023-09-19T11:46:31;100379.52;;;28.60;38.80
79374;BME280;68844;53.128;17.958;2023-09-19T11:49:06;100384.48;;;28.10;38.77
79374;BME280;68844;53.128;17.958;2023-09-19T11:51:40;100386.44;;;27.67;39.11
79374;BME280;68844;53.128;17.958;2023-09-19T11:54:13;100388.46;;;27.49;40.37
79374;BME280;68844;53.128;17.958;2023-09-19T11:56:45;100382.33;;;27.89;39.66
79374;BME280;68844;53.128;17.958;2023-09-19T11:59:19;100383.78;;;28.21;39.12
79374;BME280;68844;53.128;17.958;2023-09-19T12:01:53;100391.95;;;28.34;38.79
79374;BME280;68844;53.128;17.958;2023-09-19T12:04:36;100401.81;;;28.36;36.49
79374;BME280;68844;53.128;17.958;2023-09-19T12:07:09;100409.34;;;28.55;37.08
79374;BME280;68844;53.128;17.958;2023-09-19T12:09:43;100413.27;;;28.72;36.94
79374;BME280;68844;53.128;17.958;2023-09-19T12:12:11;100416.34;;;28.73;37.09
79374;BME280;68844;53.128;17.958;2023-09-19T12:14:47;100416.18;;;28.70;36.51
79374;BME280;68844;53.128;17.958;2023-09-19T12:17:14;100413.30;;;28.68;37.86
79374;BME280;68844;53.128;17.958;2023-09-19T12:19:53;100413.70;;;28.79;37.14
79374;BME280;68844;53.128;17.958;2023-09-19T12:22:20;100411.73;;;28.75;37.37
79374;BME280;68844;53.128;17.958;2023-09-19T12:24:51;100413.33;;;28.44;36.83
79374;BME280;68844;53.128;17.958;2023-09-19T12:27:20;100417.65;;;28.01;36.63
79374;BME280;68844;53.128;17.958;2023-09-19T12:29:49;100422.80;;;27.48;37.33
79374;BME280;68844;53.128;17.958;2023-09-19T12:32:16;100420.83;;;27.08;37.50
79374;BME280;68844;53.128;17.958;2023-09-19T12:34:50;100434.02;;;26.63;38.02
79374;BME280;68844;53.128;17.958;2023-09-19T12:37:18;100438.36;;;26.37;38.49
79374;BME280;68844;53.128;17.958;2023-09-19T12:39:50;100442.30;;;26.13;39.75
79374;BME280;68844;53.128;17.958;2023-09-19T12:42:24;100436.59;;;25.77;40.16
79374;BME280;68844;53.128;17.958;2023-09-19T12:44:52;100443.95;;;25.46;40.45
79374;BME280;68844;53.128;17.958;2023-09-19T12:47:23;100446.48;;;25.16;41.62
79374;BME280;68844;53.128;17.958;2023-09-19T12:50:10;100448.13;;;25.05;41.10
79374;BME280;68844;53.128;17.958;2023-09-19T12:52:48;100447.40;;;24.80;41.92
79374;BME280;68844;53.128;17.958;2023-09-19T12:55:30;100448.18;;;24.49;43.35
79374;BME280;68844;53.128;17.958;2023-09-19T13:00:37;100446.30;;;24.27;42.89
79374;BME280;68844;53.128;17.958;2023-09-19T13:03:11;100447.13;;;24.22;42.70
79374;BME280;68844;53.128;17.958;2023-09-19T13:05:48;100451.79;;;24.25;42.51
79374;BME280;68844;53.128;17.958;2023-09-19T13:08:33;100450.40;;;24.24;41.87
79374;BME280;68844;53.128;17.958;2023-09-19T13:11:10;100450.24;;;24.15;42.72
79374;BME280;68844;53.128;17.958;2023-09-19T13:16:06;100455.39;;;23.82;41.88
79374;BME280;68844;53.128;17.958;2023-09-19T13:18:52;100451.13;;;23.77;42.69
79374;BME280;68844;53.128;17.958;2023-09-19T13:21:31;100459.83;;;23.74;43.32
79374;BME280;68844;53.128;17.958;2023-09-19T13:26:46;100456.96;;;23.37;43.48
79374;BME280;68844;53.128;17.958;2023-09-19T13:29:12;100458.20;;;23.18;43.51
79374;BME280;68844;53.128;17.958;2023-09-19T13:31:40;100460.27;;;23.05;44.12
79374;BME280;68844;53.128;17.958;2023-09-19T13:34:08;100460.72;;;22.96;44.46
79374;BME280;68844;53.128;17.958;2023-09-19T13:36:34;100456.55;;;22.98;43.86
79374;BME280;68844;53.128;17.958;2023-09-19T13:39:01;100458.36;;;22.98;44.06
79374;BME280;68844;53.128;17.958;2023-09-19T13:41:28;100460.93;;;23.00;43.70
79374;BME280;68844;53.128;17.958;2023-09-19T13:43:55;100453.17;;;23.02;43.51
79374;BME280;68844;53.128;17.958;2023-09-19T13:46:23;100452.23;;;23.03;43.58